Time;durP1;ratioP1;P1;durP2;ratioP2;P2;SDS_P1;SDS_P2;PMS_P1;PMS_P2;Temp;Humidity;BMP_temperature;BMP_pressure;BME280_temperature;BME280_humidity;BME280_pressure;Samples;Min_cycle;Max_cycle;Signal;HPM_P1;HPM_P2
2022/10/07 00:00:50;;;;;;;3.78;1.00;;;11.70;70.30;;;;;;5068122;28;20605;-68
2022/10/07 00:03:16;;;;;;;1.80;0.88;;;11.70;70.30;;;;;;5064739;28;20578;-68
2022/10/07 00:05:42;;;;;;;5.05;1.25;;;11.60;70.30;;;;;;5068916;28;20075;-69
2022/10/07 00:08:07;;;;;;;1.52;1.00;;;11.60;70.40;;;;;;5069483;28;20067;-69
2022/10/07 00:10:40;;;;;;;1.70;0.60;;;11.60;70.50;;;;;;5050836;28;20439;-67
2022/10/07 00:13:08;;;;;;;2.38;1.40;;;11.60;70.50;;;;;;5069231;28;20029;-67
2022/10/07 00:15:34;;;;;;;1.17;1.08;;;11.60;70.70;;;;;;5062763;28;20037;-68
2022/10/07 00:18:01;;;;;;;2.42;1.20;;;11.50;70.60;;;;;;5061562;28;20036;-70
2022/10/07 00:20:26;;;;;;;0.70;0.70;;;11.60;70.70;;;;;;5034378;28;20435;-67
2022/10/07 00:22:52;;;;;;;1.10;0.63;;;11.50;70.60;;;;;;5058240;28;20063;-67
2022/10/07 00:25:18;;;;;;;1.02;0.88;;;11.50;70.50;;;;;;5066799;28;20165;-68
2022/10/07 00:27:44;;;;;;;1.17;1.00;;;11.50;70.50;;;;;;5069406;28;20089;-68
2022/10/07 00:30:10;;;;;;;7.20;1.27;;;11.50;70.60;;;;;;5051552;28;20108;-68
2022/10/07 00:32:36;;;;;;;6.68;1.33;;;11.40;70.60;;;;;;5049892;28;20093;-69
2022/10/07 00:35:01;;;;;;;1.60;0.90;;;11.40;70.60;;;;;;5067025;28;20032;-70
2022/10/07 00:37:27;;;;;;;1.23;1.10;;;11.40;70.60;;;;;;5069203;28;20021;-71
2022/10/07 00:39:53;;;;;;;1.35;0.80;;;11.40;70.70;;;;;;5069286;28;20044;-68
2022/10/07 00:42:18;;;;;;;1.20;0.82;;;11.40;70.80;;;;;;5068496;28;20051;-68
2022/10/07 00:44:45;;;;;;;1.50;1.15;;;11.40;70.80;;;;;;5067709;28;20031;-68
2022/10/07 00:47:12;;;;;;;1.58;0.93;;;11.30;70.70;;;;;;5042949;28;20515;-70
2022/10/07 00:49:47;;;;;;;4.55;0.98;;;11.30;70.70;;;;;;5068185;28;20060;-68
2022/10/07 00:52:15;;;;;;;1.13;0.85;;;11.30;70.90;;;;;;5068142;28;20060;-68
2022/10/07 00:54:42;;;;;;;1.27;0.93;;;11.20;70.90;;;;;;5068241;28;20460;-69
2022/10/07 00:57:08;;;;;;;1.42;1.05;;;11.20;71.10;;;;;;5072012;28;20025;-69
2022/10/07 00:59:38;;;;;;;2.90;1.02;;;11.20;71.10;;;;;;5073375;28;20159;-70
2022/10/07 01:02:05;;;;;;;1.27;0.90;;;11.20;71.10;;;;;;5059419;28;20025;-70
2022/10/07 01:04:31;;;;;;;1.85;1.10;;;11.20;71.20;;;;;;5060909;28;20406;-70
2022/10/07 01:06:57;;;;;;;0.85;0.65;;;11.10;71.10;;;;;;5047974;28;20040;-68
2022/10/07 01:09:22;;;;;;;1.77;0.93;;;11.10;71.20;;;;;;5053509;28;20064;-67
2022/10/07 01:12:12;;;;;;;2.17;1.60;;;11.10;71.20;;;;;;5068075;28;20453;-68
2022/10/07 01:14:47;;;;;;;2.20;1.52;;;11.10;71.10;;;;;;5073179;28;20036;-70
2022/10/07 01:17:25;;;;;;;0.82;0.80;;;11.00;71.20;;;;;;5071622;28;20052;-70
2022/10/07 01:19:57;;;;;;;7.50;1.05;;;11.00;71.40;;;;;;5058350;28;20025;-68
2022/10/07 01:22:40;;;;;;;1.27;1.05;;;10.90;71.40;;;;;;5070966;28;20032;-68
2022/10/07 01:25:35;;;;;;;1.30;1.08;;;10.90;71.40;;;;;;5059782;28;20400;-70
2022/10/07 01:28:08;;;;;;;1.88;0.93;;;10.90;71.60;;;;;;5064550;28;20107;-70
2022/10/07 01:30:39;;;;;;;0.65;0.65;;;10.90;72.30;;;;;;5063805;28;20032;-70
2022/10/07 01:33:11;;;;;;;0.63;0.50;;;10.90;71.80;;;;;;5062166;28;20379;-70
2022/10/07 01:35:41;;;;;;;1.27;1.00;;;10.90;71.80;;;;;;5071482;28;20410;-70
2022/10/07 01:38:09;;;;;;;1.60;1.10;;;10.80;71.80;;;;;;5072202;28;20021;-69
2022/10/07 01:40:43;;;;;;;0.75;0.65;;;10.80;71.90;;;;;;5058569;28;20028;-70
2022/10/07 01:43:13;;;;;;;1.45;1.20;;;10.80;72.00;;;;;;5073311;28;20379;-70
2022/10/07 01:45:42;;;;;;;3.42;1.42;;;10.80;72.10;;;;;;5057664;28;20017;-70
2022/10/07 01:48:08;;;;;;;2.65;1.20;;;10.80;72.40;;;;;;5059325;28;20479;-70
2022/10/07 01:50:36;;;;;;;4.65;1.35;;;10.80;72.50;;;;;;5071598;28;20035;-70
2022/10/07 01:53:31;;;;;;;3.00;1.23;;;10.80;72.50;;;;;;5035854;28;20103;-70
2022/10/07 01:56:06;;;;;;;9.23;2.13;;;10.80;72.40;;;;;;5060303;28;20041;-71
2022/10/07 01:59:16;;;;;;;0.90;0.90;;;10.80;72.50;;;;;;5066067;28;20044;-71
2022/10/07 02:01:55;;;;;;;2.00;0.98;;;10.80;72.50;;;;;;5053553;28;20052;-70
2022/10/07 02:04:42;;;;;;;2.08;1.40;;;10.80;72.70;;;;;;5071508;28;20430;-70
2022/10/07 02:07:47;;;;;;;2.95;1.17;;;10.70;72.80;;;;;;5065431;28;20033;-70
2022/10/07 02:10:25;;;;;;;3.72;1.45;;;10.70;72.90;;;;;;5055026;28;20487;-68
2022/10/07 02:13:12;;;;;;;2.35;1.33;;;10.70;73.70;;;;;;5071633;28;20020;-70
2022/10/07 02:15:46;;;;;;;1.88;1.05;;;10.70;73.00;;;;;;5053011;28;20032;-69
2022/10/07 02:18:15;;;;;;;1.48;1.10;;;10.60;73.00;;;;;;5045961;28;20116;-69
2022/10/07 02:20:46;;;;;;;3.22;1.52;;;10.60;73.10;;;;;;5070689;28;20055;-68
2022/10/07 02:23:13;;;;;;;2.95;1.13;;;10.60;73.10;;;;;;5071439;28;20043;-68
2022/10/07 02:25:44;;;;;;;2.35;1.42;;;10.60;73.10;;;;;;5021707;28;20040;-69
2022/10/07 02:28:13;;;;;;;2.75;0.93;;;10.60;73.20;;;;;;5062704;28;20020;-70
2022/10/07 02:30:42;;;;;;;3.50;1.15;;;10.60;73.20;;;;;;5071356;28;20027;-69
2022/10/07 02:33:09;;;;;;;2.80;0.95;;;10.60;73.20;;;;;;5069794;28;20424;-68
2022/10/07 02:35:44;;;;;;;4.20;1.30;;;10.60;73.10;;;;;;5069325;28;20089;-69
2022/10/07 02:38:13;;;;;;;2.47;1.20;;;10.60;73.00;;;;;;5070982;28;20426;-68
2022/10/07 02:40:50;;;;;;;2.60;1.20;;;10.60;73.00;;;;;;5070592;28;20017;-69
2022/10/07 02:43:25;;;;;;;2.00;1.27;;;10.60;73.00;;;;;;5071126;28;20016;-68
2022/10/07 02:46:00;;;;;;;2.25;1.17;;;10.60;72.90;;;;;;5069496;28;20036;-68
2022/10/07 02:48:42;;;;;;;2.72;1.17;;;10.50;73.00;;;;;;5043563;28;20020;-69
2022/10/07 02:51:18;;;;;;;3.28;1.05;;;10.50;72.90;;;;;;5070032;28;20028;-68
2022/10/07 02:53:48;;;;;;;3.35;1.65;;;10.50;73.00;;;;;;5069877;28;20059;-68
2022/10/07 02:56:16;;;;;;;1.80;1.25;;;10.50;73.10;;;;;;5069436;28;20033;-70
2022/10/07 02:58:45;;;;;;;2.05;1.17;;;10.40;73.10;;;;;;5057241;28;20504;-68
2022/10/07 03:01:16;;;;;;;0.98;0.88;;;10.40;73.10;;;;;;5052473;28;20021;-71
2022/10/07 03:03:43;;;;;;;0.98;0.90;;;10.40;73.10;;;;;;5054565;28;20041;-70
2022/10/07 03:06:11;;;;;;;1.80;1.20;;;10.40;73.20;;;;;;5061901;28;20036;-71
2022/10/07 03:08:37;;;;;;;2.40;0.95;;;10.40;73.80;;;;;;5056969;28;20036;-70
2022/10/07 03:11:02;;;;;;;1.23;1.10;;;10.40;73.10;;;;;;5070202;28;20471;-69
2022/10/07 03:13:29;;;;;;;0.90;0.88;;;10.40;73.10;;;;;;5054951;28;20408;-69
2022/10/07 03:15:54;;;;;;;2.05;1.20;;;10.30;73.10;;;;;;5058254;28;20575;-70
2022/10/07 03:18:27;;;;;;;1.73;0.88;;;10.30;73.20;;;;;;5058627;28;20202;-68
2022/10/07 03:20:57;;;;;;;2.88;1.52;;;10.30;73.30;;;;;;5050122;28;20027;-68
2022/10/07 03:23:23;;;;;;;11.23;1.45;;;10.30;73.40;;;;;;5052378;28;20025;-68
2022/10/07 03:25:54;;;;;;;1.42;1.27;;;10.20;73.30;;;;;;5064731;28;20053;-71
2022/10/07 03:28:22;;;;;;;3.92;1.25;;;10.20;73.30;;;;;;5052060;28;20041;-71
2022/10/07 03:30:48;;;;;;;4.28;1.23;;;10.20;73.20;;;;;;5070002;28;20036;-68
2022/10/07 03:33:16;;;;;;;1.50;1.20;;;10.20;73.30;;;;;;5069627;28;20051;-68
2022/10/07 03:35:42;;;;;;;1.58;0.95;;;10.20;73.30;;;;;;5067519;28;20024;-70
2022/10/07 03:38:08;;;;;;;2.22;1.30;;;10.20;73.40;;;;;;5054333;28;20025;-70
2022/10/07 03:40:35;;;;;;;3.60;1.58;;;10.20;73.40;;;;;;5044413;28;20095;-69
2022/10/07 03:43:01;;;;;;;2.25;1.20;;;10.10;73.30;;;;;;5056866;28;20032;-68
2022/10/07 03:45:29;;;;;;;1.40;1.30;;;10.20;73.40;;;;;;5050268;28;20521;-70
2022/10/07 03:47:58;;;;;;;2.92;1.38;;;10.10;73.40;;;;;;5067549;28;20057;-69
2022/10/07 03:50:25;;;;;;;2.05;1.10;;;10.10;73.30;;;;;;5061979;28;20040;-69
2022/10/07 03:52:51;;;;;;;1.30;1.08;;;10.10;73.40;;;;;;5063430;28;20551;-67
2022/10/07 03:55:18;;;;;;;1.58;1.10;;;10.10;73.50;;;;;;5050971;28;20373;-68
2022/10/07 03:57:49;;;;;;;1.20;1.10;;;10.10;73.50;;;;;;5057795;28;20033;-68
2022/10/07 04:00:16;;;;;;;1.00;0.90;;;10.10;73.50;;;;;;5047596;28;20098;-68
2022/10/07 04:02:42;;;;;;;1.17;0.98;;;10.10;73.60;;;;;;5058495;28;20053;-71
2022/10/07 04:05:08;;;;;;;1.20;1.10;;;10.00;73.60;;;;;;5050215;28;20455;-70
2022/10/07 04:07:34;;;;;;;1.15;1.05;;;10.00;73.60;;;;;;5044988;28;20499;-70
2022/10/07 04:09:59;;;;;;;4.13;1.10;;;10.00;73.70;;;;;;5070194;28;20074;-71
2022/10/07 04:12:25;;;;;;;2.83;1.13;;;10.00;73.70;;;;;;5032796;28;20029;-69
2022/10/07 04:14:51;;;;;;;3.00;1.15;;;10.00;73.70;;;;;;5025870;28;20033;-70
2022/10/07 04:17:17;;;;;;;5.68;1.35;;;10.00;73.60;;;;;;5030855;28;20029;-69
2022/10/07 04:19:44;;;;;;;1.70;1.20;;;10.00;73.60;;;;;;5065360;28;20411;-70
2022/10/07 04:22:09;;;;;;;1.17;1.10;;;10.00;73.70;;;;;;5068238;28;20383;-69
2022/10/07 04:24:35;;;;;;;2.75;1.13;;;10.00;73.70;;;;;;5041513;28;20083;-69
2022/10/07 04:27:03;;;;;;;3.40;1.65;;;10.00;73.80;;;;;;5061744;28;20028;-69
2022/10/07 04:29:34;;;;;;;2.35;1.75;;;10.00;73.70;;;;;;5052505;28;20399;-70
2022/10/07 04:32:00;;;;;;;2.60;1.20;;;9.90;73.80;;;;;;5034209;28;20119;-70
2022/10/07 04:34:25;;;;;;;6.30;1.92;;;9.90;73.90;;;;;;5068869;28;20104;-70
2022/10/07 04:36:53;;;;;;;1.83;1.25;;;9.90;74.00;;;;;;5064298;28;20025;-71
2022/10/07 04:39:19;;;;;;;2.28;1.10;;;9.90;74.10;;;;;;5064852;28;20411;-68
2022/10/07 04:41:45;;;;;;;2.33;1.02;;;9.90;74.20;;;;;;5062995;28;20434;-68
2022/10/07 04:44:10;;;;;;;3.75;1.70;;;9.80;74.10;;;;;;5067558;28;20025;-68
2022/10/07 04:46:36;;;;;;;3.90;1.73;;;9.80;74.20;;;;;;5063666;28;20029;-68
2022/10/07 04:49:02;;;;;;;2.33;1.35;;;9.90;74.30;;;;;;5066650;28;20400;-70
2022/10/07 04:51:29;;;;;;;3.85;1.27;;;9.80;74.30;;;;;;5064848;28;20040;-68
2022/10/07 04:53:56;;;;;;;1.98;1.23;;;9.80;74.30;;;;;;5066748;28;20451;-68
2022/10/07 04:56:22;;;;;;;1.33;1.23;;;9.80;74.30;;;;;;5068194;28;20444;-70
2022/10/07 04:58:48;;;;;;;2.55;1.15;;;9.80;74.20;;;;;;5032865;28;20484;-70
2022/10/07 05:01:13;;;;;;;1.52;1.23;;;9.80;74.10;;;;;;5064255;28;20032;-70
2022/10/07 05:03:39;;;;;;;3.65;1.30;;;9.80;74.10;;;;;;5050520;28;20472;-71
2022/10/07 05:06:09;;;;;;;1.85;1.23;;;9.80;74.10;;;;;;5049780;28;20434;-71
2022/10/07 05:08:35;;;;;;;1.20;1.00;;;9.70;74.00;;;;;;5038027;28;20142;-70
2022/10/07 05:14:36;;;;;;;1.10;1.00;;;9.70;74.00;;;;;;5041651;22;20123;-70
2022/10/07 05:17:02;;;;;;;4.20;1.38;;;9.70;74.20;;;;;;5019787;22;20500;-68
2022/10/07 05:19:28;;;;;;;1.83;1.30;;;9.60;74.30;;;;;;5000824;28;20054;-68
2022/10/07 05:21:54;;;;;;;1.65;0.80;;;9.70;74.30;;;;;;5007415;28;20062;-70
2022/10/07 05:24:20;;;;;;;12.68;1.70;;;9.60;74.20;;;;;;5007633;28;20041;-69
2022/10/07 05:26:46;;;;;;;6.18;1.20;;;9.60;74.30;;;;;;4991718;28;20022;-70
2022/10/07 05:29:12;;;;;;;1.73;1.20;;;9.70;74.30;;;;;;4991476;28;20030;-70
2022/10/07 05:31:37;;;;;;;3.15;1.50;;;9.60;74.30;;;;;;5008693;28;20482;-68
2022/10/07 05:34:03;;;;;;;3.05;1.77;;;9.60;74.30;;;;;;4991185;28;20060;-72
2022/10/07 05:36:29;;;;;;;2.13;1.50;;;9.60;74.30;;;;;;5002901;28;20126;-69
2022/10/07 05:38:58;;;;;;;4.15;1.52;;;9.60;74.50;;;;;;4989326;28;20121;-71
2022/10/07 05:41:26;;;;;;;2.88;1.50;;;9.60;74.50;;;;;;5002027;28;20026;-70
2022/10/07 05:43:52;;;;;;;1.80;1.10;;;9.60;75.10;;;;;;5010975;28;20530;-70
2022/10/07 05:46:22;;;;;;;1.90;1.23;;;9.60;74.40;;;;;;5027952;28;20037;-70
2022/10/07 05:48:50;;;;;;;6.22;2.17;;;9.60;74.50;;;;;;5012658;28;20026;-69
2022/10/07 05:51:17;;;;;;;2.67;1.13;;;9.60;74.60;;;;;;5010792;28;20076;-69
2022/10/07 05:53:45;;;;;;;4.07;1.88;;;9.60;74.70;;;;;;5012681;28;20036;-71
2022/10/07 05:56:17;;;;;;;4.85;1.27;;;9.60;74.60;;;;;;5008892;28;20034;-71
2022/10/07 05:58:43;;;;;;;2.35;1.75;;;9.60;74.70;;;;;;5021900;28;20036;-70
2022/10/07 06:01:17;;;;;;;4.78;1.63;;;9.60;74.90;;;;;;5019821;28;20026;-69
2022/10/07 06:03:48;;;;;;;4.05;1.02;;;9.60;74.80;;;;;;5011039;28;20030;-71
2022/10/07 06:06:14;;;;;;;2.13;1.27;;;9.60;74.80;;;;;;5025773;28;20115;-71
2022/10/07 06:08:40;;;;;;;2.15;1.50;;;9.60;74.90;;;;;;5019669;28;20033;-69
2022/10/07 06:13:52;;;;;;;3.53;1.40;;;9.60;75.00;;;;;;5011302;28;20052;-69
2022/10/07 06:16:17;;;;;;;1.70;1.33;;;9.60;75.10;;;;;;4992098;28;20066;-69
2022/10/07 06:18:44;;;;;;;1.40;1.30;;;9.60;75.10;;;;;;5011362;28;20076;-69
2022/10/07 06:21:11;;;;;;;6.72;1.77;;;9.60;75.10;;;;;;5011844;28;20077;-69
2022/10/07 06:23:37;;;;;;;1.30;1.20;;;9.70;75.20;;;;;;5010801;28;20026;-69
2022/10/07 06:26:06;;;;;;;1.98;1.42;;;9.70;75.20;;;;;;4974173;28;20026;-68
2022/10/07 06:28:33;;;;;;;2.50;1.48;;;9.70;75.30;;;;;;4991561;28;20489;-71
2022/10/07 06:31:03;;;;;;;10.65;1.13;;;9.80;75.50;;;;;;5016677;28;20109;-69
2022/10/07 06:33:29;;;;;;;2.92;1.45;;;9.80;75.40;;;;;;5010113;28;20120;-69
2022/10/07 06:35:57;;;;;;;3.50;1.65;;;9.90;75.50;;;;;;4992373;28;20454;-69
2022/10/07 06:38:23;;;;;;;1.05;0.95;;;9.90;75.50;;;;;;5011530;28;20405;-71
2022/10/07 06:40:59;;;;;;;3.65;1.52;;;9.90;75.60;;;;;;5025888;28;20018;-69
2022/10/07 06:43:26;;;;;;;2.30;1.10;;;10.00;75.50;;;;;;5011375;28;20034;-69
2022/10/07 06:45:51;;;;;;;6.15;1.67;;;10.10;75.70;;;;;;5008586;28;20072;-69
2022/10/07 06:48:18;;;;;;;2.60;1.65;;;10.10;75.70;;;;;;5009247;28;20054;-69
2022/10/07 06:50:54;;;;;;;2.45;1.63;;;10.20;75.80;;;;;;5000854;28;20120;-68
2022/10/07 06:53:21;;;;;;;2.67;1.42;;;10.30;75.90;;;;;;5001765;28;20103;-68
2022/10/07 06:55:50;;;;;;;3.08;1.45;;;10.40;76.00;;;;;;4993064;28;20088;-68
2022/10/07 06:58:16;;;;;;;3.80;1.42;;;10.40;76.10;;;;;;4993055;28;20516;-68
2022/10/07 07:00:46;;;;;;;1.00;0.90;;;10.50;76.10;;;;;;4983033;28;20031;-68
2022/10/07 07:03:11;;;;;;;2.08;1.23;;;10.50;76.10;;;;;;5006889;28;20021;-68
2022/10/07 07:05:38;;;;;;;2.30;1.58;;;10.60;76.20;;;;;;5008975;28;20539;-68
2022/10/07 07:08:04;;;;;;;6.13;1.20;;;10.70;76.30;;;;;;4992921;28;20026;-68
2022/10/07 07:10:35;;;;;;;4.97;1.67;;;10.70;76.20;;;;;;4990169;28;20041;-68
2022/10/07 07:13:01;;;;;;;5.15;1.40;;;10.90;76.30;;;;;;5007891;28;20036;-68
2022/10/07 07:15:26;;;;;;;2.33;1.77;;;11.00;76.30;;;;;;5010299;28;20140;-68
2022/10/07 07:17:52;;;;;;;2.55;1.48;;;11.10;76.30;;;;;;4992630;28;20033;-68
2022/10/07 07:20:18;;;;;;;2.83;1.50;;;11.20;76.50;;;;;;5010780;28;20029;-68
2022/10/07 07:22:43;;;;;;;5.05;1.95;;;11.40;76.10;;;;;;5010232;28;20033;-68
2022/10/07 07:25:10;;;;;;;3.80;1.42;;;11.50;76.10;;;;;;5010182;28;20030;-68
2022/10/07 07:27:36;;;;;;;3.72;1.83;;;11.70;75.80;;;;;;4993058;28;20034;-68
2022/10/07 07:30:04;;;;;;;6.32;2.13;;;11.80;76.40;;;;;;5009532;28;20030;-68
2022/10/07 07:32:29;;;;;;;3.38;2.28;;;11.90;76.50;;;;;;5010789;28;20096;-68
2022/10/07 07:34:55;;;;;;;7.35;1.98;;;11.90;76.30;;;;;;5009968;28;20026;-68
2022/10/07 07:37:23;;;;;;;2.55;1.75;;;11.90;76.00;;;;;;5009497;28;20038;-68
2022/10/07 07:39:49;;;;;;;4.65;1.83;;;12.00;76.10;;;;;;4992312;28;20029;-68
2022/10/07 07:42:15;;;;;;;1.13;0.88;;;12.00;76.10;;;;;;5010149;28;20026;-68
2022/10/07 07:44:41;;;;;;;3.17;1.60;;;12.10;76.00;;;;;;5010626;28;20164;-70
2022/10/07 07:47:07;;;;;;;3.45;1.42;;;12.10;76.30;;;;;;4992502;28;20049;-69
2022/10/07 07:49:34;;;;;;;4.63;2.05;;;12.20;75.80;;;;;;5013654;28;20026;-69
2022/10/07 07:52:00;;;;;;;2.17;1.10;;;12.30;75.60;;;;;;5002179;28;20033;-69
2022/10/07 07:54:27;;;;;;;4.28;1.90;;;12.40;75.50;;;;;;5010801;28;20033;-70
2022/10/07 07:56:54;;;;;;;2.72;1.30;;;12.40;75.30;;;;;;5015928;28;20021;-70
2022/10/07 07:59:20;;;;;;;3.28;2.03;;;12.50;75.50;;;;;;5013317;28;20029;-70
2022/10/07 08:01:46;;;;;;;2.63;1.95;;;12.60;75.40;;;;;;5022508;28;20469;-69
2022/10/07 08:04:12;;;;;;;1.60;1.40;;;12.60;75.20;;;;;;5024501;28;20032;-70
2022/10/07 08:06:39;;;;;;;4.10;2.10;;;12.70;75.20;;;;;;5021518;28;20022;-71
2022/10/07 08:09:05;;;;;;;3.45;1.85;;;12.80;75.20;;;;;;5009886;28;20485;-68
2022/10/07 08:11:34;;;;;;;5.05;2.40;;;12.90;75.30;;;;;;4992371;28;20436;-69
2022/10/07 08:14:02;;;;;;;7.32;2.25;;;13.00;74.90;;;;;;4993372;28;20025;-68
2022/10/07 08:16:28;;;;;;;13.55;1.98;;;13.20;74.60;;;;;;5008999;28;20060;-68
2022/10/07 08:18:55;;;;;;;2.70;1.63;;;13.30;74.90;;;;;;5009038;28;20041;-68
2022/10/07 08:21:24;;;;;;;3.53;1.50;;;13.40;74.30;;;;;;4991221;28;20037;-68
2022/10/07 08:23:55;;;;;;;5.60;2.20;;;13.40;74.30;;;;;;5008706;28;20053;-68
2022/10/07 08:26:21;;;;;;;4.60;1.75;;;13.40;74.30;;;;;;5003013;28;20034;-68
2022/10/07 08:28:47;;;;;;;2.92;1.38;;;13.40;74.10;;;;;;5009446;28;20483;-68
2022/10/07 08:31:15;;;;;;;2.65;1.92;;;13.40;74.10;;;;;;5010111;28;20030;-70
2022/10/07 08:33:43;;;;;;;3.67;1.85;;;13.40;74.20;;;;;;5015038;28;20025;-69
2022/10/07 08:36:17;;;;;;;2.83;1.45;;;13.50;74.20;;;;;;5022513;28;20033;-70
2022/10/07 08:38:44;;;;;;;4.65;1.95;;;13.60;74.10;;;;;;5010052;28;20079;-69
2022/10/07 08:41:22;;;;;;;4.90;1.25;;;13.70;74.00;;;;;;5006498;28;20036;-68
2022/10/07 08:43:49;;;;;;;5.65;1.40;;;13.70;73.70;;;;;;5010159;28;20049;-68
2022/10/07 08:46:18;;;;;;;2.58;1.13;;;13.80;73.60;;;;;;5007916;28;20076;-68
2022/10/07 08:48:51;;;;;;;1.48;1.38;;;13.90;73.60;;;;;;5008619;28;20026;-70
2022/10/07 08:51:24;;;;;;;12.30;2.20;;;14.00;73.50;;;;;;5007772;28;20865;-69
2022/10/07 08:53:53;;;;;;;3.67;1.33;;;14.10;73.20;;;;;;5009529;28;20033;-69
2022/10/07 08:56:23;;;;;;;8.15;1.65;;;14.30;72.80;;;;;;4990490;28;20038;-68
2022/10/07 08:58:59;;;;;;;3.60;1.10;;;14.50;72.40;;;;;;4991334;28;20112;-68
2022/10/07 09:01:42;;;;;;;2.42;1.50;;;14.70;72.00;;;;;;5006913;28;20091;-68
2022/10/07 09:04:31;;;;;;;4.05;1.23;;;14.90;71.40;;;;;;4991055;28;20057;-68
2022/10/07 09:07:00;;;;;;;3.10;1.50;;;15.10;71.10;;;;;;5006793;28;20030;-69
2022/10/07 09:09:38;;;;;;;5.32;1.75;;;15.30;70.70;;;;;;5009508;28;20022;-69
2022/10/07 09:12:09;;;;;;;4.63;1.30;;;15.50;70.10;;;;;;5007524;28;20030;-69
2022/10/07 09:14:42;;;;;;;2.75;1.20;;;15.60;69.70;;;;;;5008741;28;20079;-69
2022/10/07 09:17:36;;;;;;;12.23;1.90;;;15.80;69.70;;;;;;4985883;28;20048;-69
2022/10/07 09:20:15;;;;;;;3.35;1.55;;;16.00;68.90;;;;;;5010161;28;21304;-68
2022/10/07 09:22:44;;;;;;;6.80;1.63;;;16.10;68.50;;;;;;5012172;28;20029;-68
2022/10/07 09:25:10;;;;;;;1.60;1.20;;;16.20;68.40;;;;;;5011270;28;20018;-68
2022/10/07 09:27:36;;;;;;;4.47;1.42;;;16.20;68.40;;;;;;4994936;28;20057;-68
2022/10/07 09:30:02;;;;;;;3.70;1.73;;;16.40;68.10;;;;;;4993383;28;20030;-68
2022/10/07 09:32:28;;;;;;;8.48;1.05;;;16.60;67.40;;;;;;5011233;28;20812;-68
2022/10/07 09:34:54;;;;;;;4.63;2.25;;;16.60;67.80;;;;;;5010167;28;20034;-68
2022/10/07 09:37:22;;;;;;;1.50;0.80;;;16.60;66.60;;;;;;5013028;28;20117;-68
2022/10/07 09:40:21;;;;;;;2.78;1.60;;;16.50;66.90;;;;;;5011661;28;20018;-70
2022/10/07 09:42:48;;;;;;;2.72;1.23;;;16.40;67.20;;;;;;5007293;28;20729;-71
2022/10/07 09:45:20;;;;;;;1.88;1.30;;;16.30;67.80;;;;;;5019673;28;20040;-69
2022/10/07 09:47:54;;;;;;;4.97;1.65;;;16.30;68.00;;;;;;5013732;28;20033;-70
2022/10/07 09:50:35;;;;;;;4.10;1.38;;;16.20;67.90;;;;;;5016670;28;20033;-69
2022/10/07 09:53:01;;;;;;;1.13;0.90;;;16.20;68.10;;;;;;4999548;28;20029;-68
2022/10/07 09:55:39;;;;;;;3.35;1.40;;;16.10;68.00;;;;;;5005295;28;20497;-69
2022/10/07 09:58:16;;;;;;;8.15;1.67;;;16.10;68.10;;;;;;5015763;28;20525;-72
2022/10/07 10:00:44;;;;;;;2.60;0.88;;;16.10;68.20;;;;;;5020483;28;20112;-70
2022/10/07 10:03:11;;;;;;;13.55;1.33;;;16.10;68.30;;;;;;5016119;28;20034;-69
2022/10/07 10:05:40;;;;;;;3.30;0.88;;;16.20;68.30;;;;;;5022444;28;20026;-69
2022/10/07 10:08:21;;;;;;;1.27;1.00;;;16.30;68.10;;;;;;5017781;28;20465;-69
2022/10/07 10:10:55;;;;;;;3.03;1.02;;;16.40;67.70;;;;;;5016260;28;20112;-69
2022/10/07 10:13:31;;;;;;;1.70;1.10;;;16.40;67.60;;;;;;5024583;28;20076;-69
2022/10/07 10:15:58;;;;;;;16.95;1.83;;;16.50;67.40;;;;;;5015167;28;20054;-71
2022/10/07 10:18:32;;;;;;;2.33;1.50;;;16.50;67.30;;;;;;5025674;28;20030;-69
2022/10/07 10:21:18;;;;;;;5.25;1.50;;;16.60;67.20;;;;;;4996425;28;20021;-69
2022/10/07 10:23:52;;;;;;;1.10;0.93;;;16.70;67.20;;;;;;5020477;28;20032;-69
2022/10/07 10:26:24;;;;;;;3.08;1.75;;;16.70;66.90;;;;;;5016709;28;20033;-69
2022/10/07 10:28:58;;;;;;;5.75;1.15;;;16.70;66.90;;;;;;5010917;28;20386;-68
2022/10/07 10:31:48;;;;;;;2.67;1.10;;;16.80;66.90;;;;;;5011269;28;20414;-69
2022/10/07 10:34:41;;;;;;;1.48;0.70;;;16.90;66.80;;;;;;5000715;28;20038;-69
2022/10/07 10:37:19;;;;;;;2.03;0.93;;;17.10;66.70;;;;;;5007233;28;20029;-69
2022/10/07 10:40:05;;;;;;;6.30;1.55;;;17.20;65.40;;;;;;5009232;28;20028;-69
2022/10/07 10:43:02;;;;;;;1.80;1.02;;;17.20;65.30;;;;;;5007457;28;20350;-69
2022/10/07 10:45:33;;;;;;;1.30;0.80;;;17.20;64.70;;;;;;5009487;28;20080;-69
2022/10/07 10:48:28;;;;;;;3.77;0.90;;;17.20;64.90;;;;;;5010456;28;20034;-70
2022/10/07 10:51:24;;;;;;;1.48;0.60;;;17.20;64.50;;;;;;5010012;28;20037;-70
2022/10/07 10:53:58;;;;;;;1.25;1.00;;;17.30;64.30;;;;;;5012382;28;20061;-69
2022/10/07 10:56:50;;;;;;;4.13;1.10;;;17.40;64.10;;;;;;5006408;28;20465;-69
2022/10/07 10:59:21;;;;;;;3.15;0.70;;;17.70;63.90;;;;;;5012162;28;20034;-69
2022/10/07 11:02:15;;;;;;;2.17;0.83;;;17.90;63.50;;;;;;5012143;28;20076;-69
2022/10/07 11:04:56;;;;;;;2.35;0.93;;;18.10;63.40;;;;;;4974071;28;20695;-69
2022/10/07 11:07:46;;;;;;;2.85;0.82;;;18.50;62.30;;;;;;5013345;28;20054;-69
2022/10/07 11:10:22;;;;;;;6.85;1.45;;;19.00;60.60;;;;;;4981891;28;20033;-70
2022/10/07 11:12:59;;;;;;;2.15;1.02;;;19.10;59.80;;;;;;5013870;28;20026;-69
2022/10/07 11:15:34;;;;;;;1.45;0.80;;;19.30;59.70;;;;;;5010922;28;20374;-69
2022/10/07 11:18:06;;;;;;;5.45;0.80;;;19.60;59.90;;;;;;5013178;28;20036;-69
2022/10/07 11:20:46;;;;;;;2.00;1.20;;;19.80;59.20;;;;;;5004142;28;20024;-69
2022/10/07 11:23:30;;;;;;;2.20;1.17;;;20.10;58.90;;;;;;5008587;28;20417;-69
2022/10/07 11:26:01;;;;;;;1.17;0.50;;;20.30;57.70;;;;;;5002681;28;20040;-69
2022/10/07 11:28:29;;;;;;;3.72;1.25;;;20.50;57.60;;;;;;5009057;28;20026;-69
2022/10/07 11:31:04;;;;;;;2.25;0.82;;;20.50;56.40;;;;;;5008153;28;20118;-69
2022/10/07 11:33:49;;;;;;;1.73;0.80;;;20.70;56.80;;;;;;5004679;28;20474;-70
2022/10/07 11:36:35;;;;;;;3.35;1.05;;;20.70;55.80;;;;;;5000595;28;20101;-70
2022/10/07 11:39:01;;;;;;;5.28;1.00;;;20.70;55.80;;;;;;5006201;28;20473;-69
2022/10/07 11:41:32;;;;;;;1.27;0.75;;;20.60;55.10;;;;;;4993202;28;20045;-69
2022/10/07 11:44:04;;;;;;;1.77;0.70;;;20.70;55.00;;;;;;5001773;28;20465;-69
2022/10/07 11:46:30;;;;;;;;;;;20.70;54.30;;;;;;5009522;28;20269;-69
2022/10/07 11:49:04;;;;;;;1.02;0.80;;;20.70;52.90;;;;;;5010378;28;19905;-69
2022/10/07 11:51:38;;;;;;;2.47;0.63;;;20.70;54.10;;;;;;5003803;28;20037;-69
2022/10/07 11:54:11;;;;;;;1.60;0.77;;;20.70;54.20;;;;;;5011252;28;20481;-69
2022/10/07 11:56:48;;;;;;;2.38;0.80;;;20.90;54.00;;;;;;5009833;28;20496;-68
2022/10/07 11:59:44;;;;;;;2.22;0.85;;;20.90;53.80;;;;;;5007428;28;20033;-69
2022/10/07 12:02:28;;;;;;;2.80;0.73;;;21.00;53.70;;;;;;5006384;28;20025;-70
2022/10/07 12:04:58;;;;;;;4.75;1.25;;;21.10;53.40;;;;;;4995464;28;20029;-70
2022/10/07 12:07:43;;;;;;;0.93;0.75;;;21.20;53.40;;;;;;5015529;28;20030;-70
2022/10/07 12:10:25;;;;;;;1.30;0.80;;;21.20;52.90;;;;;;5010800;28;20018;-70
2022/10/07 12:13:21;;;;;;;2.60;0.70;;;21.20;52.30;;;;;;4997217;28;20021;-69
2022/10/07 12:15:48;;;;;;;7.00;1.40;;;21.20;52.70;;;;;;5009430;28;20478;-70
2022/10/07 12:18:16;;;;;;;1.30;0.50;;;21.20;52.40;;;;;;5011682;28;20073;-70
2022/10/07 12:20:45;;;;;;;1.48;0.70;;;21.30;52.30;;;;;;5008473;28;20026;-69
2022/10/07 12:23:22;;;;;;;2.78;0.70;;;21.40;52.70;;;;;;4992186;28;20045;-69
2022/10/07 12:25:51;;;;;;;0.70;0.70;;;21.70;52.00;;;;;;5003848;28;20041;-70
2022/10/07 12:28:40;;;;;;;2.35;0.70;;;21.60;51.40;;;;;;5015913;28;20101;-69
2022/10/07 12:31:26;;;;;;;1.35;0.93;;;21.70;51.70;;;;;;4985150;28;20045;-70
2022/10/07 12:34:19;;;;;;;0.80;0.60;;;21.80;51.30;;;;;;5015376;28;20036;-70
2022/10/07 12:36:45;;;;;;;0.85;0.65;;;21.80;51.50;;;;;;5003534;28;20077;-69
2022/10/07 12:39:11;;;;;;;1.90;0.95;;;21.80;50.70;;;;;;4995641;28;20489;-69
2022/10/07 12:41:41;;;;;;;0.80;0.65;;;21.70;51.20;;;;;;5002012;28;20114;-69
2022/10/07 12:44:07;;;;;;;3.17;0.90;;;21.70;51.10;;;;;;4988871;28;20037;-69
2022/10/07 12:46:50;;;;;;;1.77;1.25;;;21.70;51.10;;;;;;5001887;28;20436;-69
2022/10/07 12:49:35;;;;;;;2.20;1.45;;;21.70;50.70;;;;;;4998708;28;20033;-69
2022/10/07 12:52:15;;;;;;;2.15;1.10;;;21.50;50.60;;;;;;5000750;28;20121;-69
2022/10/07 12:54:52;;;;;;;0.95;0.50;;;21.30;51.30;;;;;;5008996;28;20038;-69
2022/10/07 12:57:24;;;;;;;1.48;0.93;;;21.30;51.60;;;;;;4998414;28;20490;-69
2022/10/07 12:59:59;;;;;;;1.02;0.98;;;21.30;51.60;;;;;;5002843;28;20111;-69
2022/10/07 13:02:42;;;;;;;0.70;0.70;;;21.30;51.10;;;;;;5010243;28;20029;-69
2022/10/07 13:05:10;;;;;;;;;;;21.30;51.10;;;;;;5013558;28;20097;-70
2022/10/07 13:08:20;;;;;;;1.50;0.50;;;21.30;51.20;;;;;;5010331;28;20426;-70
2022/10/07 13:11:02;;;;;;;3.50;1.02;;;21.30;51.10;;;;;;4989645;28;20058;-70
2022/10/07 13:13:51;;;;;;;1.88;0.68;;;21.40;50.10;;;;;;5015608;28;20025;-70
2022/10/07 13:16:37;;;;;;;2.53;0.98;;;21.70;49.50;;;;;;5013194;28;20061;-69